createdAt,value
2018-04-17T00:01:48.068Z,12.30
2018-04-17T00:04:15.537Z,12.50
2018-04-17T00:06:42.978Z,12.70
2018-04-17T00:09:11.220Z,12.70
2018-04-17T00:11:38.665Z,12.60
2018-04-17T00:14:06.121Z,12.40
2018-04-17T00:16:33.566Z,12.60
2018-04-17T00:19:01.025Z,12.50
2018-04-17T00:21:29.216Z,12.40
2018-04-17T00:23:56.691Z,12.40
2018-04-17T00:26:24.139Z,12.30
2018-04-17T00:28:51.583Z,12.00
2018-04-17T00:31:19.804Z,11.90
2018-04-17T00:33:47.270Z,11.90
2018-04-17T00:36:14.756Z,12.10
2018-04-17T00:38:42.195Z,12.40
2018-04-17T00:41:09.645Z,12.30
2018-04-17T00:43:37.125Z,11.60
2018-04-17T00:46:04.605Z,11.40
2018-04-17T00:48:32.101Z,11.80
2018-04-17T00:51:00.289Z,12.00
2018-04-17T00:53:39.672Z,11.90
2018-04-17T00:56:07.135Z,12.00
2018-04-17T00:58:34.572Z,12.10
2018-04-17T01:01:02.029Z,12.10
2018-04-17T01:03:29.816Z,12.00
2018-04-17T01:05:58.222Z,12.10
2018-04-17T01:08:25.686Z,12.00
2018-04-17T01:10:53.149Z,12.00
2018-04-17T01:13:20.606Z,12.00
2018-04-17T01:15:48.060Z,11.80
2018-04-17T01:18:15.517Z,11.50
2018-04-17T01:20:42.977Z,11.40
2018-04-17T01:23:11.206Z,11.70
2018-04-17T01:25:39.437Z,11.60
2018-04-17T01:28:06.885Z,11.60
2018-04-17T01:30:34.348Z,11.40
2018-04-17T01:33:01.814Z,11.40
2018-04-17T01:35:29.251Z,11.40
2018-04-17T01:40:30.680Z,11.30
2018-04-17T01:42:58.131Z,11.20
2018-04-17T01:45:25.566Z,11.00
2018-04-17T01:47:53.027Z,11.00
2018-04-17T01:50:20.494Z,11.00
2018-04-17T01:52:47.962Z,11.00
2018-04-17T01:55:16.210Z,10.70
2018-04-17T01:57:44.421Z,10.40
2018-04-17T02:00:12.546Z,10.40
2018-04-17T02:02:40.068Z,10.30
2018-04-17T02:05:07.761Z,10.40
2018-04-17T02:07:36.035Z,10.60
2018-04-17T02:10:03.493Z,10.60
2018-04-17T02:12:31.702Z,10.60
2018-04-17T02:14:59.172Z,10.60
2018-04-17T02:17:26.624Z,10.80
2018-04-17T02:19:54.078Z,10.60
2018-04-17T02:22:21.544Z,10.50
2018-04-17T02:24:49.199Z,10.70
2018-04-17T02:27:16.687Z,10.90
2018-04-17T02:29:44.133Z,10.70
2018-04-17T02:32:11.566Z,10.40
2018-04-17T02:34:39.778Z,10.60
2018-04-17T02:37:07.217Z,10.50
2018-04-17T02:39:34.678Z,10.50
2018-04-17T02:42:03.261Z,10.60
2018-04-17T02:44:30.694Z,10.70
2018-04-17T02:46:58.936Z,10.40
2018-04-17T02:49:26.395Z,10.40
2018-04-17T02:51:53.848Z,10.30
2018-04-17T02:54:21.290Z,10.40
2018-04-17T02:56:48.730Z,10.60
2018-04-17T02:59:16.166Z,10.60
2018-04-17T03:01:44.368Z,10.70
2018-04-17T03:04:11.851Z,10.70
2018-04-17T03:06:39.273Z,10.60
2018-04-17T03:09:07.500Z,10.50
2018-04-17T03:11:34.991Z,10.50
2018-04-17T03:14:02.429Z,10.50
2018-04-17T03:16:29.892Z,10.60
2018-04-17T03:18:57.346Z,10.50
2018-04-17T03:21:24.797Z,10.50
2018-04-17T03:23:52.246Z,10.40
2018-04-17T03:26:19.702Z,10.20
2018-04-17T03:28:47.983Z,10.00
2018-04-17T03:31:16.189Z,10.00
2018-04-17T03:33:48.335Z,10.00
2018-04-17T03:36:15.874Z,9.80
2018-04-17T03:38:43.334Z,9.80
2018-04-17T03:41:10.775Z,9.60
2018-04-17T03:43:38.229Z,9.50
2018-04-17T03:46:06.090Z,9.70
2018-04-17T03:48:33.534Z,9.70
2018-04-17T03:51:00.975Z,9.70
2018-04-17T03:53:28.403Z,9.80
2018-04-17T03:55:55.857Z,9.90
2018-04-17T03:58:23.301Z,9.70
2018-04-17T04:00:50.815Z,9.80
2018-04-17T04:03:18.357Z,9.70
2018-04-17T04:05:45.892Z,9.60
2018-04-17T04:08:14.188Z,9.60
2018-04-17T04:10:42.539Z,9.60
2018-04-17T04:13:11.505Z,9.90
2018-04-17T04:15:39.042Z,9.80
2018-04-17T04:18:18.196Z,9.80
2018-04-17T04:20:57.618Z,9.90
2018-04-17T04:23:36.974Z,9.90
2018-04-17T04:26:17.264Z,9.50
2018-04-17T04:28:44.726Z,9.50
2018-04-17T04:31:12.145Z,9.50
2018-04-17T04:33:39.586Z,9.40
2018-04-17T04:36:07.008Z,9.30
2018-04-17T04:38:34.454Z,9.20
2018-04-17T04:41:02.664Z,9.30
2018-04-17T04:43:30.107Z,9.30
2018-04-17T04:45:57.543Z,9.20
2018-04-17T04:48:25.752Z,9.00
2018-04-17T04:50:53.253Z,9.00
2018-04-17T04:53:20.693Z,8.90
2018-04-17T04:55:48.125Z,9.00
2018-04-17T04:58:16.341Z,8.90
2018-04-17T05:00:43.785Z,8.90
2018-04-17T05:03:11.218Z,9.10
2018-04-17T05:05:39.442Z,9.10
2018-04-17T05:08:06.916Z,9.00
2018-04-17T05:10:34.381Z,9.00
2018-04-17T05:13:01.817Z,8.80
2018-04-17T05:15:29.282Z,8.80
2018-04-17T05:17:56.730Z,8.90
2018-04-17T05:20:24.638Z,8.90
2018-04-17T05:22:52.089Z,9.40
2018-04-17T05:25:19.532Z,9.10
2018-04-17T05:27:46.978Z,8.90
2018-04-17T05:30:15.194Z,9.10
2018-04-17T05:32:47.067Z,9.10
2018-04-17T05:35:14.687Z,9.10
2018-04-17T05:37:44.224Z,9.10
2018-04-17T05:40:12.949Z,9.10
2018-04-17T05:42:40.337Z,9.10
2018-04-17T05:45:07.797Z,9.20
2018-04-17T05:47:35.228Z,9.20
2018-04-17T05:50:02.717Z,9.30
2018-04-17T05:52:30.139Z,9.40
2018-04-17T05:54:57.609Z,9.40
2018-04-17T05:57:25.814Z,9.60
2018-04-17T05:59:53.280Z,9.50
2018-04-17T06:02:20.718Z,9.60
2018-04-17T06:04:48.179Z,9.70
2018-04-17T06:07:15.623Z,9.80
2018-04-17T06:09:43.072Z,9.80
2018-04-17T06:12:10.508Z,9.90
2018-04-17T06:14:38.739Z,10.00
2018-04-17T06:17:06.177Z,10.00
2018-04-17T06:19:33.613Z,10.10
2018-04-17T06:22:01.859Z,10.40
2018-04-17T06:24:29.338Z,10.40
2018-04-17T06:26:56.800Z,10.30
2018-04-17T06:29:24.264Z,10.30
2018-04-17T06:31:51.713Z,10.30
2018-04-17T06:34:19.176Z,10.40
2018-04-17T06:36:46.668Z,10.50
2018-04-17T06:39:14.227Z,10.50
2018-04-17T06:41:41.734Z,10.60
2018-04-17T06:44:09.142Z,10.60
2018-04-17T06:46:36.599Z,10.60
2018-04-17T06:49:04.062Z,10.70
2018-04-17T06:51:31.520Z,10.80
2018-04-17T06:53:58.977Z,10.90
2018-04-17T06:56:26.426Z,10.90
2018-04-17T06:58:53.892Z,11.10
2018-04-17T07:01:21.351Z,11.20
2018-04-17T07:03:48.804Z,11.20
2018-04-17T07:06:17.064Z,11.10
2018-04-17T07:08:44.509Z,11.10
2018-04-17T07:11:12.751Z,11.10
2018-04-17T07:13:40.199Z,11.10
2018-04-17T07:16:07.681Z,11.20
2018-04-17T07:18:35.145Z,11.30
2018-04-17T07:21:02.622Z,11.50
2018-04-17T07:23:30.074Z,11.70
2018-04-17T07:25:57.533Z,12.00
2018-04-17T07:28:24.983Z,12.10
2018-04-17T07:30:52.441Z,12.20
2018-04-17T07:33:19.902Z,12.30
2018-04-17T07:35:49.550Z,12.40
2018-04-17T07:38:16.990Z,12.60
2018-04-17T07:40:44.456Z,12.80
2018-04-17T07:43:11.901Z,12.90
2018-04-17T07:45:39.350Z,13.00
2018-04-17T07:48:22.336Z,13.10
2018-04-17T07:50:50.573Z,13.00
2018-04-17T07:53:18.087Z,13.00
2018-04-17T07:55:46.393Z,13.10
2018-04-17T07:58:13.789Z,13.10
2018-04-17T08:00:41.268Z,13.40
2018-04-17T08:03:08.752Z,13.60
2018-04-17T08:05:36.993Z,13.80
2018-04-17T08:08:04.877Z,13.80
2018-04-17T08:10:33.330Z,13.70
2018-04-17T08:13:01.547Z,14.20
2018-04-17T08:15:29.006Z,14.20
2018-04-17T08:17:57.013Z,14.50
2018-04-17T08:20:25.246Z,14.60
2018-04-17T08:22:53.491Z,14.60
2018-04-17T08:25:20.936Z,14.60
2018-04-17T08:27:49.178Z,14.50
2018-04-17T08:30:16.626Z,14.50
2018-04-17T08:32:44.091Z,14.60
2018-04-17T08:35:11.542Z,14.90
2018-04-17T08:37:38.988Z,15.10
2018-04-17T08:40:06.453Z,15.10
2018-04-17T08:42:33.889Z,15.40
2018-04-17T08:45:02.113Z,15.50
2018-04-17T08:47:29.591Z,15.50
2018-04-17T08:49:57.020Z,15.90
2018-04-17T08:52:24.527Z,16.00
2018-04-17T08:54:51.981Z,16.20
2018-04-17T08:57:19.422Z,16.10
2018-04-17T08:59:46.896Z,16.00
2018-04-17T09:02:14.356Z,16.20
2018-04-17T09:04:41.804Z,16.00
2018-04-17T09:07:09.241Z,16.10
2018-04-17T09:09:37.476Z,15.90
2018-04-17T09:12:04.910Z,15.90
2018-04-17T09:14:32.393Z,15.80
2018-04-17T09:16:59.860Z,16.00
2018-04-17T09:19:27.302Z,15.80
2018-04-17T09:21:54.736Z,15.90
2018-04-17T09:24:22.198Z,15.90
2018-04-17T09:26:49.640Z,15.90
2018-04-17T09:29:17.888Z,16.40
2018-04-17T09:31:45.328Z,16.40
2018-04-17T09:34:12.790Z,16.30
2018-04-17T09:36:40.256Z,16.60
2018-04-17T09:39:07.685Z,16.80
2018-04-17T09:41:37.168Z,16.60
2018-04-17T09:46:38.652Z,16.60
2018-04-17T09:49:06.580Z,16.80
2018-04-17T09:51:34.038Z,16.80
2018-04-17T09:54:01.491Z,17.10
2018-04-17T09:56:28.952Z,17.00
2018-04-17T09:58:56.396Z,16.80
2018-04-17T10:01:25.692Z,17.00
2018-04-17T10:03:54.134Z,17.00
2018-04-17T10:06:21.561Z,17.00
2018-04-17T10:08:49.081Z,17.00
2018-04-17T10:11:17.216Z,17.30
2018-04-17T10:13:44.669Z,17.30
2018-04-17T10:16:12.116Z,17.30
2018-04-17T10:18:39.568Z,17.50
2018-04-17T10:21:07.779Z,18.10
2018-04-17T10:23:35.229Z,18.10
2018-04-17T10:26:02.689Z,18.30
2018-04-17T10:28:30.150Z,18.20
2018-04-17T10:30:57.579Z,18.30
2018-04-17T10:33:25.044Z,18.30
2018-04-17T10:35:52.484Z,18.00
2018-04-17T10:38:19.934Z,17.80
2018-04-17T10:40:47.395Z,17.50
2018-04-17T10:43:14.836Z,17.40
2018-04-17T10:45:42.307Z,17.40
2018-04-17T10:48:09.762Z,17.60
2018-04-17T10:50:37.209Z,17.80
2018-04-17T10:53:04.656Z,18.20
2018-04-17T10:55:32.887Z,18.10
2018-04-17T10:58:00.338Z,18.10
2018-04-17T11:00:27.798Z,18.00
2018-04-17T11:02:55.267Z,17.80
2018-04-17T11:05:22.710Z,18.00
2018-04-17T11:07:50.173Z,18.00
2018-04-17T11:10:17.592Z,18.30
2018-04-17T11:12:45.046Z,18.90
2018-04-17T11:15:12.484Z,18.50
2018-04-17T11:17:39.945Z,18.40
2018-04-17T11:20:07.393Z,18.50
2018-04-17T11:22:34.868Z,18.40
2018-04-17T11:25:02.315Z,18.40
2018-04-17T11:27:29.760Z,18.60
2018-04-17T11:29:57.199Z,18.60
2018-04-17T11:32:24.649Z,18.50
2018-04-17T11:34:52.096Z,18.40
2018-04-17T11:37:19.541Z,18.40
2018-04-17T11:39:47.019Z,18.10
2018-04-17T11:42:14.460Z,18.00
2018-04-17T11:44:41.952Z,17.90
2018-04-17T11:47:09.467Z,18.00
2018-04-17T11:49:37.736Z,18.20
2018-04-17T11:52:05.938Z,18.20
2018-04-17T11:54:33.374Z,18.20
2018-04-17T11:57:01.635Z,18.60
2018-04-17T11:59:29.088Z,18.60
2018-04-17T12:01:56.533Z,18.70
2018-04-17T12:04:23.991Z,18.60
2018-04-17T12:06:51.610Z,18.50
2018-04-17T12:09:19.885Z,18.30
2018-04-17T12:11:48.104Z,18.20
2018-04-17T12:14:15.577Z,18.20
2018-04-17T12:16:43.082Z,18.20
2018-04-17T12:19:10.604Z,18.10
2018-04-17T12:21:38.052Z,18.10
2018-04-17T12:24:05.652Z,18.20
2018-04-17T12:26:33.101Z,18.00
2018-04-17T12:29:00.543Z,18.10
2018-04-17T12:31:28.007Z,18.10
2018-04-17T12:33:56.081Z,18.40
2018-04-17T12:36:23.541Z,18.60
2018-04-17T12:38:50.972Z,18.70
2018-04-17T12:41:19.212Z,19.00
2018-04-17T12:43:46.644Z,19.00
2018-04-17T12:46:14.220Z,19.00
2018-04-17T12:48:41.790Z,18.90
2018-04-17T12:51:09.245Z,19.00
2018-04-17T12:53:39.793Z,19.10
2018-04-17T12:56:07.253Z,19.30
2018-04-17T12:58:34.710Z,19.40
2018-04-17T13:01:02.172Z,19.50
2018-04-17T13:03:29.620Z,19.40
2018-04-17T13:05:57.085Z,19.70
2018-04-17T13:08:24.522Z,19.60
2018-04-17T13:10:52.728Z,19.60
2018-04-17T13:13:20.184Z,19.60
2018-04-17T13:15:47.705Z,19.80
2018-04-17T13:18:15.106Z,19.70
2018-04-17T13:20:42.542Z,19.60
2018-04-17T13:23:09.975Z,19.70
2018-04-17T13:25:37.469Z,19.60
2018-04-17T13:28:05.668Z,19.80
2018-04-17T13:30:33.129Z,19.80
2018-04-17T13:33:00.584Z,19.90
2018-04-17T13:35:28.800Z,20.30
2018-04-17T13:37:56.250Z,20.20
2018-04-17T13:40:23.718Z,20.30
2018-04-17T13:42:51.194Z,20.30
2018-04-17T13:45:18.651Z,20.20
2018-04-17T13:47:46.101Z,20.30
2018-04-17T13:50:13.544Z,20.20
2018-04-17T13:52:41.760Z,20.20
2018-04-17T13:55:09.218Z,20.20
2018-04-17T13:57:36.660Z,20.40
2018-04-17T14:00:04.113Z,20.40
2018-04-17T14:02:32.437Z,20.20
2018-04-17T14:05:00.618Z,20.30
2018-04-17T14:07:28.838Z,20.30
2018-04-17T14:09:57.079Z,20.30
2018-04-17T14:12:24.530Z,20.30
2018-04-17T14:14:51.976Z,20.40
2018-04-17T14:17:19.455Z,20.40
2018-04-17T14:19:46.897Z,20.30
2018-04-17T14:22:14.350Z,20.50
2018-04-17T14:24:41.789Z,20.50
2018-04-17T14:27:09.238Z,20.30
2018-04-17T14:29:36.708Z,20.20
2018-04-17T14:32:04.189Z,20.40
2018-04-17T14:34:31.648Z,20.30
2018-04-17T14:36:59.878Z,20.40
2018-04-17T14:39:27.333Z,20.30
2018-04-17T14:41:54.791Z,20.20
2018-04-17T14:44:22.279Z,20.30
2018-04-17T14:46:49.750Z,20.40
2018-04-17T14:49:17.213Z,20.50
2018-04-17T14:51:44.681Z,20.50
2018-04-17T14:54:12.121Z,20.40
2018-04-17T14:56:39.596Z,20.50
2018-04-17T14:59:07.029Z,20.50
2018-04-17T15:01:34.486Z,20.50
2018-04-17T15:04:01.946Z,20.50
2018-04-17T15:06:29.409Z,20.60
2018-04-17T15:08:57.895Z,20.60
2018-04-17T15:11:25.352Z,20.60
2018-04-17T15:13:53.572Z,20.60
2018-04-17T15:16:21.021Z,20.60
2018-04-17T15:18:48.487Z,20.50
2018-04-17T15:21:15.979Z,20.50
2018-04-17T15:23:43.440Z,20.70
2018-04-17T15:26:12.223Z,20.60
2018-04-17T15:28:40.586Z,20.50
2018-04-17T15:31:08.051Z,20.50
2018-04-17T15:33:35.536Z,20.50
2018-04-17T15:36:03.011Z,20.50
2018-04-17T15:38:30.445Z,20.50
2018-04-17T15:40:57.941Z,20.60
2018-04-17T15:43:25.756Z,20.40
2018-04-17T15:45:53.230Z,20.50
2018-04-17T15:48:20.688Z,20.40
2018-04-17T15:50:48.169Z,20.50
2018-04-17T15:53:15.616Z,20.50
2018-04-17T15:55:43.057Z,20.60
2018-04-17T15:58:10.925Z,20.60
2018-04-17T16:00:38.533Z,20.70
2018-04-17T16:03:06.011Z,20.60
2018-04-17T16:05:33.457Z,20.70
2018-04-17T16:08:00.932Z,20.50
2018-04-17T16:10:28.390Z,20.60
2018-04-17T16:12:55.870Z,20.80
2018-04-17T16:15:23.337Z,20.50
2018-04-17T16:17:50.788Z,20.40
2018-04-17T16:20:18.231Z,20.40
2018-04-17T16:22:45.672Z,20.40
2018-04-17T16:25:13.151Z,20.30
2018-04-17T16:27:40.613Z,20.10
2018-04-17T16:30:08.084Z,20.30
2018-04-17T16:32:35.529Z,20.40
2018-04-17T16:35:03.513Z,20.30
2018-04-17T16:37:31.747Z,20.40
2018-04-17T16:39:59.951Z,20.30
2018-04-17T16:42:27.414Z,20.30
2018-04-17T16:44:54.844Z,20.30
2018-04-17T16:47:23.060Z,20.50
2018-04-17T16:49:50.500Z,20.40
2018-04-17T16:52:18.717Z,20.30
2018-04-17T16:54:46.168Z,20.20
2018-04-17T16:57:13.649Z,20.20
2018-04-17T16:59:41.142Z,20.20
2018-04-17T17:02:09.402Z,20.10
2018-04-17T17:04:36.900Z,20.10
2018-04-17T17:07:04.400Z,20.10
2018-04-17T17:09:31.842Z,20.00
2018-04-17T17:11:59.307Z,20.00
2018-04-17T17:14:27.525Z,20.20
2018-04-17T17:16:56.536Z,20.20
2018-04-17T17:19:24.208Z,20.20
2018-04-17T17:21:51.654Z,20.10
2018-04-17T17:24:19.129Z,20.00
2018-04-17T17:26:46.572Z,20.00
2018-04-17T17:29:14.795Z,20.00
2018-04-17T17:31:42.241Z,19.90
2018-04-17T17:34:09.731Z,20.00
2018-04-17T17:36:38.602Z,20.30
2018-04-17T17:39:06.055Z,20.20
2018-04-17T17:41:33.501Z,20.00
2018-04-17T17:44:00.961Z,20.20
2018-04-17T17:46:29.161Z,20.00
2018-04-17T17:48:56.663Z,20.00
2018-04-17T17:51:24.090Z,20.10
2018-04-17T17:53:51.546Z,19.80
2018-04-17T17:56:18.997Z,19.90
2018-04-17T17:58:46.473Z,20.00
2018-04-17T18:01:13.922Z,20.00
2018-04-17T18:03:41.386Z,20.00
2018-04-17T18:06:08.834Z,20.00
2018-04-17T18:08:40.251Z,19.80
2018-04-17T18:11:08.461Z,19.70
2018-04-17T18:13:35.901Z,19.60
2018-04-17T18:16:04.128Z,20.00
2018-04-17T18:18:31.585Z,20.00
2018-04-17T18:20:59.070Z,20.10
2018-04-17T18:23:27.246Z,19.90
2018-04-17T18:25:54.725Z,19.60
2018-04-17T18:28:22.327Z,19.90
2018-04-17T18:30:49.786Z,20.10
2018-04-17T18:33:17.287Z,20.00
2018-04-17T18:35:44.711Z,20.00
2018-04-17T18:38:12.213Z,20.20
2018-04-17T18:40:39.695Z,19.90
2018-04-17T18:43:07.284Z,19.70
2018-04-17T18:45:35.519Z,19.90
2018-04-17T18:48:02.956Z,19.90
2018-04-17T18:50:30.396Z,19.60
2018-04-17T18:52:58.637Z,19.90
2018-04-17T18:55:26.822Z,19.80
2018-04-17T18:57:54.261Z,19.90
2018-04-17T19:00:23.560Z,19.70
2018-04-17T19:02:51.030Z,19.70
2018-04-17T19:05:18.531Z,19.60
2018-04-17T19:07:46.003Z,19.90
2018-04-17T19:10:14.227Z,19.90
2018-04-17T19:12:41.661Z,19.90
2018-04-17T19:15:09.873Z,19.90
2018-04-17T19:17:37.321Z,19.90
2018-04-17T19:20:05.550Z,19.30
2018-04-17T19:22:32.989Z,19.20
2018-04-17T19:25:00.486Z,19.40
2018-04-17T19:27:29.285Z,19.60
2018-04-17T19:29:57.546Z,19.80
2018-04-17T19:32:25.141Z,19.80
2018-04-17T19:34:53.360Z,19.50
2018-04-17T19:37:20.868Z,19.50
2018-04-17T19:39:48.353Z,19.40
2018-04-17T19:42:16.697Z,19.30
2018-04-17T19:44:44.159Z,19.30
2018-04-17T19:47:11.609Z,19.20
2018-04-17T19:52:13.148Z,19.10
2018-04-17T19:54:40.604Z,19.20
2018-04-17T19:57:08.086Z,19.20
2018-04-17T19:59:36.260Z,19.30
2018-04-17T20:02:03.745Z,19.20
2018-04-17T20:04:31.217Z,19.10
2018-04-17T20:06:58.700Z,19.10
2018-04-17T20:09:26.595Z,19.10
2018-04-17T20:11:54.817Z,19.30
2018-04-17T20:14:22.368Z,19.20
2018-04-17T20:16:49.845Z,19.40
2018-04-17T20:19:17.413Z,19.50
2018-04-17T20:21:44.916Z,19.50
2018-04-17T20:24:12.414Z,19.40
2018-04-17T20:26:39.856Z,19.30
2018-04-17T20:29:07.323Z,19.20
2018-04-17T20:31:36.287Z,19.30
2018-04-17T20:34:04.480Z,19.30
2018-04-17T20:36:32.697Z,19.30
2018-04-17T20:39:00.937Z,19.20
2018-04-17T20:41:28.487Z,19.20
2018-04-17T20:43:56.772Z,19.20
2018-04-17T20:46:25.032Z,19.10
2018-04-17T20:48:52.468Z,19.10
2018-04-17T20:51:19.990Z,19.00
2018-04-17T20:53:48.364Z,18.90
2018-04-17T20:56:15.843Z,18.90
2018-04-17T20:58:44.047Z,19.00
2018-04-17T21:01:12.361Z,18.90
2018-04-17T21:03:39.891Z,18.90
2018-04-17T21:06:07.430Z,18.90
2018-04-17T21:08:34.937Z,18.80
2018-04-17T21:11:02.919Z,18.90
2018-04-17T21:13:31.162Z,18.90
2018-04-17T21:15:58.815Z,18.90
2018-04-17T21:18:26.272Z,18.80
2018-04-17T21:20:54.078Z,18.80
2018-04-17T21:23:21.603Z,18.90
2018-04-17T21:25:49.058Z,18.80
2018-04-17T21:28:16.516Z,18.80
2018-04-17T21:30:44.013Z,18.80
2018-04-17T21:33:13.051Z,18.70
2018-04-17T21:35:40.561Z,18.60
2018-04-17T21:38:09.608Z,18.60
2018-04-17T21:40:37.695Z,18.60
2018-04-17T21:43:05.153Z,18.60
2018-04-17T21:45:32.593Z,18.60
2018-04-17T21:48:00.821Z,18.40
2018-04-17T21:50:28.264Z,18.30
2018-04-17T21:52:55.735Z,18.40
2018-04-17T21:55:23.233Z,18.30
2018-04-17T21:57:50.694Z,18.10
2018-04-17T22:00:18.142Z,18.20
2018-04-17T22:02:45.594Z,17.90
2018-04-17T22:05:13.067Z,18.00
2018-04-17T22:07:40.502Z,18.00
2018-04-17T22:10:07.957Z,18.10
2018-04-17T22:12:35.399Z,18.00
2018-04-17T22:15:03.635Z,18.00
2018-04-17T22:17:31.075Z,18.00
2018-04-17T22:19:58.519Z,18.00
2018-04-17T22:22:25.961Z,17.90
2018-04-17T22:24:54.182Z,17.90
2018-04-17T22:27:22.320Z,17.90
2018-04-17T22:29:50.567Z,17.90
2018-04-17T22:32:18.107Z,17.80
2018-04-17T22:34:45.567Z,17.80
2018-04-17T22:37:13.013Z,17.70
2018-04-17T22:39:40.454Z,17.70
2018-04-17T22:42:08.678Z,17.70
2018-04-17T22:44:36.143Z,17.70
2018-04-17T22:47:03.618Z,17.60
2018-04-17T22:49:31.066Z,17.50
2018-04-17T22:51:58.538Z,17.20
2018-04-17T22:54:25.981Z,17.30
2018-04-17T22:56:53.431Z,17.40
2018-04-17T22:59:20.891Z,17.40
2018-04-17T23:01:48.354Z,17.40
2018-04-17T23:04:15.825Z,17.40
2018-04-17T23:06:43.264Z,17.40
2018-04-17T23:09:11.461Z,17.30
2018-04-17T23:11:38.913Z,17.30
2018-04-17T23:14:06.408Z,17.20
2018-04-17T23:16:33.866Z,17.30
2018-04-17T23:19:01.323Z,17.20
2018-04-17T23:21:29.550Z,17.10
2018-04-17T23:23:56.991Z,17.10
2018-04-17T23:26:24.454Z,17.10
2018-04-17T23:28:51.917Z,17.10
2018-04-17T23:31:19.375Z,17.10
2018-04-17T23:33:46.839Z,17.00
2018-04-17T23:36:14.308Z,17.00
2018-04-17T23:38:41.746Z,16.80
2018-04-17T23:41:09.201Z,16.70
2018-04-17T23:43:36.659Z,16.60
2018-04-17T23:46:04.120Z,16.40
2018-04-17T23:48:31.575Z,16.60
2018-04-17T23:50:59.017Z,16.60
2018-04-17T23:53:27.241Z,16.60
2018-04-17T23:55:54.696Z,16.60
2018-04-17T23:58:22.149Z,16.50
